Time;durP1;ratioP1;P1;durP2;ratioP2;P2;SDS_P1;SDS_P2;PMS_P1;PMS_P2;Temp;Humidity;BMP_temperature;BMP_pressure;BME280_temperature;BME280_humidity;BME280_pressure;Samples;Min_cycle;Max_cycle;Signal;HPM_P1;HPM_P2
2020/12/20 00:00:15;;;;;;;5.23;4.73;;;10.40;99.90;;;;;;5078650;27;20215;-77
2020/12/20 00:02:56;;;;;;;6.40;5.13;;;10.30;99.90;;;;;;5067715;27;20248;-77
2020/12/20 00:05:24;;;;;;;5.83;5.33;;;10.20;99.90;;;;;;5095986;27;20470;-77
2020/12/20 00:07:50;;;;;;;5.00;4.60;;;10.20;99.90;;;;;;5066835;27;20463;-77
2020/12/20 00:10:16;;;;;;;5.70;4.03;;;10.00;99.90;;;;;;5085608;27;20446;-77
2020/12/20 00:12:42;;;;;;;5.60;4.73;;;10.10;99.90;;;;;;5051186;27;20925;-76
2020/12/20 00:15:08;;;;;;;5.63;5.10;;;10.10;99.90;;;;;;5082145;27;20494;-77
2020/12/20 00:17:34;;;;;;;7.00;5.43;;;10.10;99.90;;;;;;5088718;28;20401;-77
2020/12/20 00:20:01;;;;;;;4.30;3.90;;;10.10;99.90;;;;;;5085326;27;20448;-77
2020/12/20 00:22:26;;;;;;;9.63;5.10;;;10.10;99.90;;;;;;5083133;27;20400;-77
2020/12/20 00:24:52;;;;;;;6.23;4.73;;;10.10;99.90;;;;;;5086018;27;20431;-77
2020/12/20 00:27:18;;;;;;;6.80;5.50;;;10.10;99.90;;;;;;5095000;27;20564;-77
2020/12/20 00:29:43;;;;;;;5.50;5.00;;;10.30;99.90;;;;;;5102819;27;20668;-77
2020/12/20 00:32:11;;;;;;;6.90;4.83;;;10.40;99.90;;;;;;5062921;27;20203;-77
2020/12/20 00:34:37;;;;;;;6.30;4.67;;;10.40;99.90;;;;;;5085624;27;20639;-77
2020/12/20 00:37:04;;;;;;;4.53;4.07;;;10.40;99.90;;;;;;5087381;28;21523;-77
2020/12/20 00:39:31;;;;;;;7.43;4.60;;;10.50;99.90;;;;;;5062049;27;20425;-77
2020/12/20 00:42:01;;;;;;;7.37;4.10;;;10.50;99.90;;;;;;5105739;27;20483;-76
2020/12/20 00:44:28;;;;;;;7.33;4.60;;;10.70;99.90;;;;;;5086972;28;20495;-77
2020/12/20 00:46:55;;;;;;;5.40;4.43;;;10.80;99.90;;;;;;5068893;27;20928;-77
2020/12/20 00:49:26;;;;;;;5.13;4.60;;;11.00;99.90;;;;;;5087922;28;20474;-77
2020/12/20 00:51:53;;;;;;;5.50;5.00;;;11.00;99.90;;;;;;5079062;27;20480;-77
2020/12/20 00:54:19;;;;;;;4.00;3.60;;;11.10;99.90;;;;;;5077653;27;20423;-77
2020/12/20 00:56:45;;;;;;;7.13;5.17;;;11.10;99.90;;;;;;5112558;27;20430;-76
2020/12/20 00:59:12;;;;;;;4.50;4.10;;;11.20;99.90;;;;;;5060047;27;20405;-77
2020/12/20 01:01:37;;;;;;;4.93;4.43;;;11.20;99.90;;;;;;5075130;27;20415;-77
2020/12/20 01:04:03;;;;;;;4.83;4.30;;;11.20;99.90;;;;;;5114079;27;20451;-77
2020/12/20 01:06:28;;;;;;;4.73;4.33;;;11.10;99.90;;;;;;5073469;28;20364;-77
2020/12/20 01:08:54;;;;;;;6.40;4.30;;;11.00;99.90;;;;;;5091309;27;20658;-76
2020/12/20 01:11:20;;;;;;;14.20;4.60;;;11.00;99.90;;;;;;5093199;27;20667;-76
2020/12/20 01:13:50;;;;;;;4.03;3.50;;;10.90;99.90;;;;;;5068026;28;20299;-76
2020/12/20 01:16:21;;;;;;;7.00;3.60;;;10.90;99.90;;;;;;5088696;27;20482;-76
2020/12/20 01:18:47;;;;;;;4.23;3.20;;;10.90;99.90;;;;;;5080429;27;20488;-77
2020/12/20 01:21:14;;;;;;;4.87;3.87;;;11.00;99.90;;;;;;5093492;27;20442;-77
2020/12/20 01:23:40;;;;;;;4.57;4.27;;;11.00;99.90;;;;;;5089692;27;20570;-76
2020/12/20 01:26:06;;;;;;;10.60;6.00;;;11.00;99.90;;;;;;5112256;27;20949;-76
2020/12/20 01:28:32;;;;;;;5.13;4.00;;;11.00;99.90;;;;;;5086031;27;20421;-76
2020/12/20 01:30:58;;;;;;;4.67;4.17;;;11.00;99.90;;;;;;5093240;27;20227;-76
2020/12/20 01:33:24;;;;;;;4.90;4.03;;;11.00;99.90;;;;;;5089412;27;21279;-77
2020/12/20 01:35:50;;;;;;;3.90;3.50;;;11.00;99.90;;;;;;5109840;27;20452;-76
2020/12/20 01:38:16;;;;;;;5.53;4.33;;;11.00;99.90;;;;;;5094649;27;20219;-76
2020/12/20 01:40:52;;;;;;;4.87;4.30;;;11.20;99.90;;;;;;5095768;28;20911;-77
2020/12/20 01:43:18;;;;;;;5.10;4.50;;;11.00;99.90;;;;;;5095973;27;20488;-76
2020/12/20 01:45:44;;;;;;;5.40;4.03;;;11.20;99.90;;;;;;5068915;28;20444;-76
2020/12/20 01:48:11;;;;;;;5.30;4.67;;;11.10;99.90;;;;;;5110128;27;20406;-76
2020/12/20 01:50:39;;;;;;;5.37;4.10;;;11.00;99.90;;;;;;5100222;27;20432;-76
2020/12/20 01:53:05;;;;;;;4.40;4.03;;;11.10;99.90;;;;;;5097601;27;20400;-76
2020/12/20 01:55:32;;;;;;;5.17;4.63;;;11.00;99.90;;;;;;5090969;27;20488;-77
2020/12/20 01:57:58;;;;;;;5.70;4.13;;;11.00;99.90;;;;;;5089047;27;20490;-76
2020/12/20 02:00:24;;;;;;;4.17;3.67;;;11.10;99.90;;;;;;5105358;27;20525;-77
2020/12/20 02:02:50;;;;;;;8.10;4.60;;;11.20;99.90;;;;;;5073138;27;20429;-77
2020/12/20 02:05:16;;;;;;;5.27;4.00;;;11.00;99.90;;;;;;5087649;28;20888;-76
2020/12/20 02:07:42;;;;;;;5.00;4.50;;;11.00;99.90;;;;;;5091287;27;20337;-76
2020/12/20 02:10:08;;;;;;;7.83;4.30;;;11.00;99.90;;;;;;5112073;27;20491;-77
2020/12/20 02:12:34;;;;;;;7.70;4.60;;;10.90;99.90;;;;;;5078151;27;20417;-76
2020/12/20 02:15:00;;;;;;;5.60;4.70;;;10.90;99.90;;;;;;5078697;27;20211;-77
2020/12/20 02:17:25;;;;;;;7.40;5.37;;;10.90;99.90;;;;;;5094587;27;20747;-77
2020/12/20 02:19:51;;;;;;;7.50;4.23;;;10.90;99.90;;;;;;5110572;27;20622;-76
2020/12/20 02:22:17;;;;;;;4.60;4.20;;;11.00;99.90;;;;;;5092318;27;21111;-76
2020/12/20 02:24:43;;;;;;;5.00;4.50;;;11.00;99.90;;;;;;5103475;28;20216;-76
2020/12/20 02:27:09;;;;;;;5.50;4.40;;;10.90;99.90;;;;;;5102405;27;20208;-76
2020/12/20 02:29:35;;;;;;;6.80;4.70;;;10.90;99.90;;;;;;5112041;27;20446;-76
2020/12/20 02:32:00;;;;;;;6.87;4.73;;;10.90;99.90;;;;;;5101155;27;20890;-76
2020/12/20 02:34:27;;;;;;;6.13;4.67;;;10.80;99.90;;;;;;5090499;27;20215;-76
2020/12/20 02:36:52;;;;;;;5.37;4.87;;;10.90;99.90;;;;;;5109606;27;20200;-77
2020/12/20 02:39:18;;;;;;;5.60;5.10;;;11.00;99.90;;;;;;5093846;27;23540;-77
2020/12/20 02:41:44;;;;;;;4.77;4.30;;;11.00;99.90;;;;;;5090775;27;20741;-76
2020/12/20 02:44:10;;;;;;;6.30;4.50;;;10.90;99.90;;;;;;5103774;27;20211;-76
2020/12/20 02:46:36;;;;;;;6.33;5.00;;;10.80;99.90;;;;;;5100219;27;20528;-76
2020/12/20 02:49:01;;;;;;;5.80;5.20;;;10.80;99.90;;;;;;5102576;27;20249;-76
2020/12/20 02:51:27;;;;;;;10.57;5.33;;;10.80;99.90;;;;;;5111972;27;20235;-76
2020/12/20 02:53:53;;;;;;;6.23;4.87;;;10.70;99.90;;;;;;5100796;27;20298;-76
2020/12/20 02:56:19;;;;;;;7.27;6.10;;;10.80;99.90;;;;;;5087999;27;20530;-76
2020/12/20 02:58:46;;;;;;;5.27;4.67;;;10.80;99.90;;;;;;5052922;27;20405;-76
2020/12/20 03:01:12;;;;;;;5.90;4.93;;;10.80;99.90;;;;;;5074738;27;21443;-76
2020/12/20 03:03:38;;;;;;;10.57;5.10;;;10.70;99.90;;;;;;5058119;27;20852;-77
2020/12/20 03:06:04;;;;;;;8.33;5.63;;;10.60;99.90;;;;;;5070759;27;20211;-77
2020/12/20 03:08:29;;;;;;;6.87;5.90;;;10.60;99.90;;;;;;5093294;27;20298;-77
2020/12/20 03:10:55;;;;;;;6.13;4.87;;;10.50;99.90;;;;;;5077738;27;20228;-77
2020/12/20 03:13:21;;;;;;;6.37;5.37;;;10.50;99.90;;;;;;5092376;27;20213;-77
2020/12/20 03:15:46;;;;;;;9.03;5.40;;;10.50;99.90;;;;;;5087852;27;20211;-77
2020/12/20 03:18:12;;;;;;;7.73;6.10;;;10.50;99.90;;;;;;5103642;27;20736;-77
2020/12/20 03:20:38;;;;;;;7.37;5.73;;;10.40;99.90;;;;;;5119931;27;20222;-77
2020/12/20 03:23:04;;;;;;;7.97;7.00;;;10.40;99.90;;;;;;5076327;27;20199;-77
2020/12/20 03:25:33;;;;;;;5.87;5.27;;;10.40;99.90;;;;;;5114955;27;20249;-77
2020/12/20 03:27:58;;;;;;;11.47;5.23;;;10.30;99.90;;;;;;5110769;27;20799;-77
2020/12/20 03:30:24;;;;;;;6.77;6.10;;;10.30;99.90;;;;;;5110823;27;20430;-77
2020/12/20 03:32:50;;;;;;;10.80;6.03;;;10.40;99.90;;;;;;5077470;27;20207;-77
2020/12/20 03:35:16;;;;;;;9.93;7.00;;;10.30;99.90;;;;;;5083103;27;20951;-77
2020/12/20 03:38:08;;;;;;;6.80;6.20;;;10.40;99.90;;;;;;5092323;27;20709;-77
2020/12/20 03:40:33;;;;;;;7.97;6.07;;;10.30;99.90;;;;;;5088779;27;20218;-77
2020/12/20 03:42:59;;;;;;;9.10;6.87;;;10.20;99.90;;;;;;5088753;27;20414;-77
2020/12/20 03:45:24;;;;;;;6.13;5.47;;;10.20;99.90;;;;;;5091500;27;20215;-77
2020/12/20 03:47:50;;;;;;;9.23;7.77;;;10.20;99.90;;;;;;5112477;27;20203;-77
2020/12/20 03:50:16;;;;;;;6.50;5.90;;;10.10;99.90;;;;;;5075653;27;20385;-77
2020/12/20 03:52:41;;;;;;;7.83;5.77;;;10.00;99.90;;;;;;5075094;27;20298;-77
2020/12/20 03:55:08;;;;;;;9.00;5.60;;;10.00;99.90;;;;;;5111233;27;20211;-76
2020/12/20 03:57:33;;;;;;;9.63;6.67;;;10.10;99.90;;;;;;5086446;27;20213;-76
2020/12/20 04:00:00;;;;;;;8.07;5.57;;;10.00;99.90;;;;;;5068744;27;20423;-76
2020/12/20 04:02:26;;;;;;;8.97;6.13;;;10.00;99.90;;;;;;5094602;27;20700;-76
2020/12/20 04:04:53;;;;;;;8.00;5.70;;;9.90;99.90;;;;;;5104847;27;20432;-76
2020/12/20 04:07:18;;;;;;;8.27;6.47;;;9.90;99.90;;;;;;5080008;27;20392;-76
2020/12/20 04:09:44;;;;;;;8.17;5.70;;;9.70;99.90;;;;;;5099030;27;20455;-76
2020/12/20 04:12:10;;;;;;;7.27;6.57;;;9.70;99.90;;;;;;5068980;27;20207;-76
2020/12/20 04:14:35;;;;;;;6.93;6.00;;;9.70;99.90;;;;;;5089521;27;20615;-76
2020/12/20 04:17:01;;;;;;;8.10;5.90;;;9.60;99.90;;;;;;5110919;27;20257;-76
2020/12/20 04:19:27;;;;;;;8.57;5.60;;;9.60;99.90;;;;;;5079434;27;20702;-76
2020/12/20 04:21:53;;;;;;;6.83;5.90;;;9.60;99.90;;;;;;5066459;27;20210;-76
2020/12/20 04:24:18;;;;;;;6.40;5.80;;;9.70;99.90;;;;;;5073787;27;21173;-76
2020/12/20 04:26:44;;;;;;;7.70;5.63;;;9.70;99.90;;;;;;5061189;27;20225;-76
2020/12/20 04:29:11;;;;;;;7.80;5.13;;;9.60;99.90;;;;;;5087879;27;20239;-76
2020/12/20 04:31:37;;;;;;;8.00;4.90;;;9.80;99.90;;;;;;5084112;27;20428;-75
2020/12/20 04:34:03;;;;;;;7.53;5.63;;;9.80;99.90;;;;;;5097346;27;20979;-76
2020/12/20 04:36:28;;;;;;;6.03;5.33;;;9.80;99.90;;;;;;5107078;27;20429;-75
2020/12/20 04:38:55;;;;;;;7.20;5.47;;;9.80;99.90;;;;;;5099810;27;20209;-76
2020/12/20 04:41:23;;;;;;;5.33;4.77;;;9.80;99.90;;;;;;5087345;27;20962;-73
2020/12/20 04:43:50;;;;;;;7.67;4.90;;;9.70;99.90;;;;;;5097554;27;20430;-74
2020/12/20 04:46:17;;;;;;;8.43;6.40;;;9.70;99.90;;;;;;5105703;27;20422;-74
2020/12/20 04:48:44;;;;;;;7.23;5.87;;;9.80;99.90;;;;;;5093893;27;20446;-74
2020/12/20 04:51:11;;;;;;;6.20;4.97;;;9.80;99.90;;;;;;5100315;27;20471;-74
2020/12/20 04:53:37;;;;;;;5.77;5.07;;;9.80;99.90;;;;;;5071282;27;20470;-75
2020/12/20 04:56:12;;;;;;;6.40;5.40;;;9.70;99.90;;;;;;5104054;27;20493;-75
2020/12/20 04:58:39;;;;;;;6.60;5.90;;;9.80;99.90;;;;;;5092302;27;20416;-75
2020/12/20 05:01:06;;;;;;;7.37;6.27;;;9.90;99.90;;;;;;5102633;27;22614;-75
2020/12/20 05:03:32;;;;;;;14.40;6.60;;;9.90;99.90;;;;;;5106424;27;20857;-75
2020/12/20 05:05:58;;;;;;;9.07;8.00;;;9.90;99.90;;;;;;5081140;27;20904;-75
2020/12/20 05:08:25;;;;;;;9.73;6.30;;;10.00;99.90;;;;;;5114734;27;20413;-75
2020/12/20 05:10:52;;;;;;;7.53;5.60;;;10.00;99.90;;;;;;5110487;27;20439;-74
2020/12/20 05:13:18;;;;;;;7.43;6.37;;;9.90;99.90;;;;;;5130543;27;20413;-74
2020/12/20 05:15:44;;;;;;;7.40;5.90;;;9.80;99.90;;;;;;5103869;27;20392;-74
2020/12/20 05:18:12;;;;;;;7.87;5.43;;;9.80;99.90;;;;;;5112791;27;20490;-74
2020/12/20 05:20:45;;;;;;;8.37;5.47;;;9.80;99.90;;;;;;5101012;27;20552;-74
2020/12/20 05:23:13;;;;;;;8.53;6.40;;;9.80;99.90;;;;;;5089275;27;20880;-74
2020/12/20 05:25:40;;;;;;;7.03;5.80;;;9.80;99.90;;;;;;5124040;27;20505;-74
2020/12/20 05:28:18;;;;;;;7.27;5.80;;;9.90;99.90;;;;;;5100044;27;20441;-74
2020/12/20 05:30:45;;;;;;;11.33;6.87;;;9.90;99.90;;;;;;5112912;27;21019;-74
2020/12/20 05:33:29;;;;;;;6.00;5.37;;;9.90;99.90;;;;;;5120053;27;20421;-74
2020/12/20 05:36:05;;;;;;;7.63;6.20;;;10.00;99.90;;;;;;5120599;27;21342;-74
2020/12/20 05:38:32;;;;;;;6.53;5.90;;;10.00;99.90;;;;;;5115302;27;20419;-75
2020/12/20 05:40:59;;;;;;;6.27;5.67;;;10.00;99.90;;;;;;5096007;27;20937;-74
2020/12/20 05:43:26;;;;;;;8.23;5.67;;;10.00;99.90;;;;;;5092522;27;20928;-74
2020/12/20 05:45:52;;;;;;;8.17;5.80;;;10.00;99.90;;;;;;5091600;28;20509;-74
2020/12/20 05:48:24;;;;;;;6.77;6.13;;;10.00;99.90;;;;;;5104121;27;20548;-74
2020/12/20 05:50:52;;;;;;;7.50;5.20;;;9.90;99.90;;;;;;5126944;27;21356;-74
2020/12/20 05:53:26;;;;;;;6.93;6.30;;;9.90;99.90;;;;;;5093509;27;20991;-74
2020/12/20 05:55:54;;;;;;;8.40;6.67;;;9.90;99.90;;;;;;5083782;27;20987;-74
2020/12/20 05:58:19;;;;;;;8.37;5.77;;;9.90;99.90;;;;;;5101341;27;21291;-74
2020/12/20 06:00:46;;;;;;;6.97;6.27;;;9.90;99.90;;;;;;5094284;27;20437;-74
2020/12/20 06:03:13;;;;;;;8.43;6.97;;;9.90;99.90;;;;;;5112515;27;20202;-74
2020/12/20 06:05:46;;;;;;;7.93;5.87;;;9.80;99.90;;;;;;5089592;27;20422;-75
2020/12/20 06:08:16;;;;;;;7.23;6.47;;;9.80;99.90;;;;;;5110505;27;21065;-75
2020/12/20 06:11:01;;;;;;;10.40;7.07;;;9.80;99.90;;;;;;5119867;27;20463;-75
2020/12/20 06:13:27;;;;;;;12.57;6.23;;;9.80;99.90;;;;;;5107996;27;20921;-75
2020/12/20 06:15:55;;;;;;;10.80;6.53;;;9.80;99.90;;;;;;5105744;27;20483;-75
2020/12/20 06:18:29;;;;;;;7.10;6.17;;;9.80;99.90;;;;;;5107800;27;20204;-75
2020/12/20 06:20:56;;;;;;;7.57;6.87;;;9.80;99.90;;;;;;5118327;27;20506;-75
2020/12/20 06:23:27;;;;;;;8.67;7.60;;;9.80;99.90;;;;;;5110313;27;20425;-75
2020/12/20 06:25:55;;;;;;;7.87;6.93;;;9.90;99.90;;;;;;5083519;27;20417;-75
2020/12/20 06:28:25;;;;;;;9.90;6.83;;;9.80;99.90;;;;;;5109706;27;20457;-75
2020/12/20 06:30:52;;;;;;;7.83;6.70;;;9.80;99.90;;;;;;5086514;27;20455;-75
2020/12/20 06:33:39;;;;;;;8.83;6.70;;;9.80;99.90;;;;;;5125616;27;20420;-75
2020/12/20 06:36:11;;;;;;;7.20;6.40;;;9.80;99.90;;;;;;5117551;27;20973;-75
2020/12/20 06:38:37;;;;;;;10.23;7.67;;;9.80;99.90;;;;;;5111175;27;20403;-75
2020/12/20 06:41:03;;;;;;;13.90;7.43;;;9.80;99.90;;;;;;5095991;27;21152;-75
2020/12/20 06:43:34;;;;;;;11.13;7.17;;;9.80;99.90;;;;;;5107431;27;20910;-75
2020/12/20 06:46:01;;;;;;;8.73;7.00;;;9.80;99.90;;;;;;5101807;27;20418;-75
2020/12/20 06:48:38;;;;;;;8.80;6.77;;;9.80;99.90;;;;;;5106940;27;20408;-75
2020/12/20 06:51:26;;;;;;;7.20;6.50;;;9.80;99.90;;;;;;5103767;28;20416;-75
2020/12/20 06:53:53;;;;;;;7.20;6.23;;;9.80;99.90;;;;;;5097822;28;20415;-75
2020/12/20 06:56:23;;;;;;;7.60;6.80;;;9.70;99.90;;;;;;5107377;28;20447;-75
2020/12/20 06:58:50;;;;;;;7.70;6.60;;;9.80;99.90;;;;;;5091177;27;20507;-75
2020/12/20 07:01:39;;;;;;;7.03;6.40;;;9.70;99.90;;;;;;5102046;27;20399;-75
2020/12/20 07:04:11;;;;;;;11.00;7.80;;;9.70;99.90;;;;;;5097503;27;20398;-75
2020/12/20 07:06:37;;;;;;;7.93;6.90;;;9.70;99.90;;;;;;5126160;27;20482;-75
2020/12/20 07:09:08;;;;;;;8.10;6.23;;;9.80;99.90;;;;;;5088422;28;20408;-75
2020/12/20 07:11:42;;;;;;;9.40;7.70;;;9.80;99.90;;;;;;5088763;28;20652;-75
2020/12/20 07:14:22;;;;;;;10.93;7.77;;;9.80;99.90;;;;;;5089731;28;20403;-75
2020/12/20 07:16:48;;;;;;;9.47;7.17;;;9.80;99.90;;;;;;5105632;27;20421;-75
2020/12/20 07:19:24;;;;;;;10.17;7.67;;;9.70;99.90;;;;;;5104006;28;20413;-75
2020/12/20 07:21:53;;;;;;;10.40;7.40;;;9.70;99.90;;;;;;5104840;27;20420;-75
2020/12/20 07:24:30;;;;;;;11.00;7.60;;;9.60;99.90;;;;;;5123345;27;20434;-75
2020/12/20 07:27:00;;;;;;;9.60;7.43;;;9.50;99.90;;;;;;5102460;28;20923;-75
2020/12/20 07:29:27;;;;;;;10.43;9.20;;;9.40;99.90;;;;;;5104800;27;21240;-75
2020/12/20 07:31:55;;;;;;;7.90;6.63;;;9.40;99.90;;;;;;5107016;27;20431;-75
2020/12/20 07:34:22;;;;;;;9.17;8.27;;;9.30;99.90;;;;;;5101935;28;20966;-76
2020/12/20 07:36:48;;;;;;;13.73;9.03;;;9.20;99.90;;;;;;5116891;27;20415;-76
2020/12/20 07:39:14;;;;;;;11.80;9.10;;;9.30;99.90;;;;;;5109711;27;20951;-75
2020/12/20 07:41:40;;;;;;;8.53;7.67;;;9.30;99.90;;;;;;5105458;27;20214;-75
2020/12/20 07:44:07;;;;;;;9.87;8.40;;;9.30;99.90;;;;;;5105175;28;20419;-76
2020/12/20 07:46:34;;;;;;;11.60;8.57;;;9.30;99.90;;;;;;5109427;27;20213;-75
2020/12/20 07:49:04;;;;;;;12.63;8.97;;;9.30;99.90;;;;;;5104639;27;20404;-76
2020/12/20 07:51:30;;;;;;;12.20;8.67;;;9.40;99.90;;;;;;5098664;27;20413;-76
2020/12/20 07:53:58;;;;;;;10.13;8.07;;;9.40;99.90;;;;;;5063367;28;20471;-75
2020/12/20 07:56:29;;;;;;;9.97;8.30;;;9.50;99.90;;;;;;5086666;27;21549;-75
2020/12/20 07:59:06;;;;;;;12.47;8.37;;;9.40;99.90;;;;;;5091857;28;20443;-75
2020/12/20 08:01:33;;;;;;;11.83;9.57;;;9.40;99.90;;;;;;5116912;27;20410;-76
2020/12/20 08:04:07;;;;;;;9.43;8.43;;;9.50;99.90;;;;;;5091492;27;20418;-76
2020/12/20 08:06:44;;;;;;;11.97;8.77;;;9.40;99.90;;;;;;5084886;28;20404;-76
2020/12/20 08:09:11;;;;;;;9.43;8.50;;;9.50;99.90;;;;;;5113117;27;20499;-76
2020/12/20 08:11:37;;;;;;;13.70;8.70;;;9.50;99.90;;;;;;5090449;27;20481;-76
2020/12/20 08:14:05;;;;;;;11.60;9.47;;;9.40;99.90;;;;;;5068825;28;20433;-76
2020/12/20 08:16:33;;;;;;;10.40;8.97;;;9.50;99.90;;;;;;5092781;28;20762;-76
2020/12/20 08:19:28;;;;;;;11.27;8.27;;;9.70;99.90;;;;;;5054406;28;20379;-76
2020/12/20 08:22:14;;;;;;;9.80;7.80;;;9.70;99.90;;;;;;5091197;27;20439;-76
2020/12/20 08:24:47;;;;;;;13.37;9.13;;;9.80;99.90;;;;;;5084972;27;21011;-76
2020/12/20 08:27:25;;;;;;;9.50;8.63;;;9.90;99.90;;;;;;5107495;27;20401;-76
2020/12/20 08:29:53;;;;;;;10.77;8.23;;;10.00;99.90;;;;;;5080326;28;20821;-76
2020/12/20 08:32:25;;;;;;;11.70;8.07;;;10.10;99.90;;;;;;5088395;27;20429;-76
2020/12/20 08:34:51;;;;;;;11.30;9.07;;;10.10;99.90;;;;;;5061761;28;20477;-76
2020/12/20 08:37:19;;;;;;;9.60;6.77;;;10.20;99.90;;;;;;5113252;27;20407;-76
2020/12/20 08:39:45;;;;;;;9.83;6.87;;;10.20;99.90;;;;;;5081116;28;20415;-76
2020/12/20 08:42:13;;;;;;;8.20;7.40;;;10.30;99.90;;;;;;5095290;28;20440;-76
2020/12/20 08:44:40;;;;;;;7.90;7.10;;;10.30;99.90;;;;;;5066121;28;20428;-76
2020/12/20 08:47:14;;;;;;;8.37;7.20;;;10.50;99.90;;;;;;5090889;27;20392;-76
2020/12/20 08:49:53;;;;;;;10.33;6.73;;;10.70;99.90;;;;;;5072327;27;20506;-76
2020/12/20 08:52:20;;;;;;;7.83;7.03;;;10.80;99.90;;;;;;5089615;27;20411;-76
2020/12/20 08:54:50;;;;;;;9.40;7.10;;;11.00;99.90;;;;;;5092028;28;20424;-77
2020/12/20 08:57:17;;;;;;;11.90;7.20;;;11.00;99.90;;;;;;5084101;28;20408;-76
2020/12/20 08:59:46;;;;;;;9.40;7.50;;;11.00;99.90;;;;;;5109783;27;20909;-75
2020/12/20 09:02:20;;;;;;;7.27;6.57;;;11.00;99.90;;;;;;5095998;28;20424;-75
2020/12/20 09:05:00;;;;;;;11.03;7.50;;;11.00;99.90;;;;;;5073666;28;20956;-75
2020/12/20 09:07:32;;;;;;;8.57;7.20;;;10.80;99.90;;;;;;5118930;27;20411;-75
2020/12/20 09:10:24;;;;;;;7.20;6.03;;;10.70;99.90;;;;;;5089514;28;20544;-75
2020/12/20 09:12:54;;;;;;;9.17;6.20;;;10.90;99.90;;;;;;5067890;28;20489;-76
2020/12/20 09:15:30;;;;;;;5.77;4.97;;;11.10;99.90;;;;;;5091679;27;20463;-75
2020/12/20 09:17:57;;;;;;;9.20;6.63;;;11.40;99.90;;;;;;5123936;27;20429;-75
2020/12/20 09:20:25;;;;;;;9.70;5.53;;;11.50;99.90;;;;;;5080601;28;20825;-75
2020/12/20 09:23:00;;;;;;;5.30;4.80;;;11.40;99.90;;;;;;5113896;27;20476;-76
2020/12/20 09:25:38;;;;;;;6.40;5.33;;;11.50;99.90;;;;;;5104803;27;20509;-76
2020/12/20 09:28:09;;;;;;;8.60;6.20;;;11.50;99.90;;;;;;5104148;28;20394;-76
2020/12/20 09:30:37;;;;;;;5.80;5.20;;;12.00;99.90;;;;;;5056807;28;20466;-76
2020/12/20 09:33:22;;;;;;;9.03;6.80;;;12.30;99.90;;;;;;5111553;27;20860;-76
2020/12/20 09:36:01;;;;;;;11.00;6.50;;;12.40;99.90;;;;;;5108274;27;20428;-76
2020/12/20 09:38:48;;;;;;;6.50;4.83;;;12.30;99.90;;;;;;5098980;28;20923;-76
2020/12/20 09:41:19;;;;;;;5.93;5.33;;;12.20;99.90;;;;;;5107034;27;20814;-76
2020/12/20 09:43:46;;;;;;;5.10;4.60;;;12.10;99.90;;;;;;5105046;27;20420;-76
2020/12/20 09:46:25;;;;;;;7.40;5.20;;;11.90;99.90;;;;;;5107363;28;20417;-76
2020/12/20 09:48:52;;;;;;;6.60;4.70;;;12.30;99.90;;;;;;5104244;27;20426;-76
2020/12/20 09:51:18;;;;;;;8.57;5.30;;;12.40;99.90;;;;;;5115673;27;20421;-76
2020/12/20 09:53:45;;;;;;;6.00;4.80;;;12.90;99.90;;;;;;5090082;27;20472;-76
2020/12/20 09:56:12;;;;;;;7.50;5.53;;;13.30;99.90;;;;;;5104284;28;20941;-76
2020/12/20 09:58:38;;;;;;;7.87;5.70;;;13.60;99.90;;;;;;5074238;28;20572;-76
2020/12/20 10:01:04;;;;;;;5.30;4.80;;;13.40;99.90;;;;;;5091923;27;21200;-76
2020/12/20 10:03:30;;;;;;;6.37;4.27;;;13.70;99.90;;;;;;5101819;27;20209;-76
2020/12/20 10:05:59;;;;;;;9.13;5.03;;;13.90;99.90;;;;;;5087571;28;20299;-76
2020/12/20 10:08:26;;;;;;;6.90;5.00;;;14.70;99.90;;;;;;5075303;28;20200;-76
2020/12/20 10:10:55;;;;;;;5.33;4.77;;;14.80;99.90;;;;;;5095885;27;20955;-76
2020/12/20 10:13:22;;;;;;;5.03;4.43;;;15.80;99.90;;;;;;5099355;27;20467;-75
2020/12/20 10:15:48;;;;;;;6.47;4.00;;;16.40;99.90;;;;;;5114118;27;20439;-76
2020/12/20 10:18:14;;;;;;;7.50;4.60;;;17.00;99.90;;;;;;5079789;28;20421;-76
2020/12/20 10:20:40;;;;;;;7.67;4.27;;;16.20;99.90;;;;;;5095601;28;20424;-76
2020/12/20 10:23:06;;;;;;;7.60;5.10;;;15.80;99.90;;;;;;5111131;27;20447;-76
2020/12/20 10:25:31;;;;;;;5.33;4.30;;;15.60;99.90;;;;;;5104901;27;20208;-76
2020/12/20 10:27:57;;;;;;;8.00;4.80;;;15.50;99.90;;;;;;5097290;27;20200;-76
2020/12/20 10:30:24;;;;;;;7.67;4.83;;;15.30;99.90;;;;;;5084121;27;20219;-76
2020/12/20 10:32:50;;;;;;;5.13;4.33;;;15.00;99.90;;;;;;5095956;28;20953;-76
2020/12/20 10:35:17;;;;;;;4.93;4.43;;;13.60;99.90;;;;;;5092783;28;20457;-76
2020/12/20 10:37:43;;;;;;;7.47;4.40;;;13.40;99.90;;;;;;5071695;28;20531;-75
2020/12/20 10:40:09;;;;;;;6.17;3.60;;;13.00;99.90;;;;;;5090844;27;20443;-75
2020/12/20 10:42:35;;;;;;;8.60;4.47;;;13.00;99.90;;;;;;5103382;28;20223;-75
2020/12/20 10:45:02;;;;;;;5.53;4.40;;;13.10;99.90;;;;;;5096447;27;20914;-75
2020/12/20 10:47:28;;;;;;;5.20;4.10;;;12.60;99.90;;;;;;5065375;28;20284;-75
2020/12/20 10:49:53;;;;;;;8.00;5.27;;;12.60;99.90;;;;;;5083127;28;20429;-76
2020/12/20 10:52:19;;;;;;;7.90;6.10;;;12.60;99.90;;;;;;5095343;27;20272;-76
2020/12/20 10:54:45;;;;;;;8.17;6.10;;;12.50;99.90;;;;;;5044122;28;20289;-76
2020/12/20 10:57:10;;;;;;;7.87;5.20;;;12.30;99.90;;;;;;5064046;28;20289;-76
2020/12/20 10:59:36;;;;;;;8.00;4.80;;;12.20;99.90;;;;;;5091938;28;20205;-76
2020/12/20 11:02:02;;;;;;;9.37;5.00;;;12.30;99.90;;;;;;5037362;28;20331;-76
2020/12/20 11:04:28;;;;;;;14.60;8.47;;;12.60;99.90;;;;;;5097828;27;20226;-76
2020/12/20 11:07:01;;;;;;;8.70;5.67;;;12.90;99.90;;;;;;5109114;28;20413;-75
2020/12/20 11:09:27;;;;;;;9.67;7.67;;;12.90;99.90;;;;;;5093354;28;20200;-75
2020/12/20 11:11:54;;;;;;;10.53;4.47;;;12.90;99.90;;;;;;5093579;28;20464;-75
2020/12/20 11:14:20;;;;;;;6.60;4.37;;;12.40;99.90;;;;;;5060361;28;22731;-75
2020/12/20 11:16:52;;;;;;;8.07;3.60;;;12.40;99.90;;;;;;5087663;28;20433;-75
2020/12/20 11:19:19;;;;;;;11.43;6.10;;;12.60;99.90;;;;;;5088565;28;20426;-75
2020/12/20 11:21:53;;;;;;;8.57;4.40;;;12.80;99.90;;;;;;5089353;28;20417;-75
2020/12/20 11:24:20;;;;;;;7.63;4.80;;;12.70;99.90;;;;;;5091629;27;20410;-76
2020/12/20 11:26:47;;;;;;;5.30;4.07;;;12.60;99.90;;;;;;5087978;27;20490;-78
2020/12/20 11:29:13;;;;;;;10.03;4.57;;;12.60;99.90;;;;;;5091140;28;20397;-75
2020/12/20 11:31:38;;;;;;;7.13;3.87;;;12.30;99.90;;;;;;5089750;28;20430;-75
2020/12/20 11:34:06;;;;;;;10.00;3.93;;;12.20;99.90;;;;;;5055038;27;20499;-75
2020/12/20 11:36:32;;;;;;;6.43;3.33;;;12.30;99.90;;;;;;5104518;27;20633;-75
2020/12/20 11:38:58;;;;;;;5.03;4.53;;;12.40;99.90;;;;;;5094383;27;20553;-75
2020/12/20 11:41:26;;;;;;;6.20;3.20;;;12.50;99.90;;;;;;5067461;28;20416;-75
2020/12/20 11:43:52;;;;;;;8.57;5.10;;;12.20;99.90;;;;;;5068509;28;20445;-75
2020/12/20 11:46:18;;;;;;;4.80;3.67;;;12.70;99.90;;;;;;5107106;27;20462;-75
2020/12/20 11:48:44;;;;;;;8.30;5.50;;;12.50;99.90;;;;;;5059616;28;20400;-75
2020/12/20 11:51:12;;;;;;;8.43;4.20;;;12.70;99.90;;;;;;5078573;27;20235;-76
2020/12/20 11:53:38;;;;;;;8.20;4.60;;;12.90;99.90;;;;;;5058441;28;20844;-76
2020/12/20 11:56:09;;;;;;;8.10;3.63;;;12.80;99.90;;;;;;5096972;27;20412;-75
2020/12/20 11:58:34;;;;;;;10.20;3.87;;;12.50;99.90;;;;;;5080753;28;20586;-75
2020/12/20 12:01:00;;;;;;;10.37;4.43;;;12.60;99.90;;;;;;5078771;28;20438;-75
2020/12/20 12:03:26;;;;;;;5.40;3.07;;;12.50;99.90;;;;;;5072240;27;20578;-76
2020/12/20 12:05:52;;;;;;;11.33;3.70;;;12.40;99.90;;;;;;5085480;28;20923;-76
2020/12/20 12:08:18;;;;;;;5.20;4.57;;;12.70;99.90;;;;;;5111338;27;20714;-76
2020/12/20 12:10:46;;;;;;;8.07;3.43;;;12.50;99.90;;;;;;5075136;27;20445;-75
2020/12/20 12:13:13;;;;;;;3.50;3.17;;;12.50;99.90;;;;;;5113480;27;20265;-75
2020/12/20 12:15:40;;;;;;;7.80;3.80;;;12.50;99.90;;;;;;5073233;27;20440;-76
2020/12/20 12:18:06;;;;;;;5.13;3.40;;;12.30;99.90;;;;;;5111750;27;20795;-75
2020/12/20 12:20:32;;;;;;;8.80;4.13;;;12.20;99.90;;;;;;5088201;28;20463;-75
2020/12/20 12:22:58;;;;;;;10.30;4.10;;;12.20;99.90;;;;;;5076536;28;20421;-76
2020/12/20 12:25:23;;;;;;;9.73;4.27;;;12.10;99.90;;;;;;5084194;27;20203;-76
2020/12/20 12:27:49;;;;;;;12.60;4.23;;;12.10;99.90;;;;;;5059395;28;20564;-76
2020/12/20 12:30:15;;;;;;;6.70;3.60;;;12.10;99.90;;;;;;5085459;28;20212;-76
2020/12/20 12:32:41;;;;;;;5.30;4.80;;;12.00;99.90;;;;;;5117248;27;20273;-76
2020/12/20 12:35:08;;;;;;;6.63;4.60;;;12.20;99.90;;;;;;5074179;28;20431;-76
2020/12/20 12:37:35;;;;;;;4.93;3.53;;;12.10;99.90;;;;;;5112882;28;20463;-76
2020/12/20 12:40:01;;;;;;;7.57;4.00;;;12.20;99.90;;;;;;5087918;28;20945;-76
2020/12/20 12:42:27;;;;;;;5.80;3.13;;;12.10;99.90;;;;;;5089481;28;20421;-76
2020/12/20 12:44:53;;;;;;;5.20;3.63;;;12.20;99.90;;;;;;5064043;28;20428;-77
2020/12/20 12:47:19;;;;;;;10.87;4.80;;;12.30;99.90;;;;;;5074597;27;20316;-76
2020/12/20 12:49:44;;;;;;;9.23;3.70;;;12.30;99.90;;;;;;5093419;28;20313;-76
2020/12/20 12:52:10;;;;;;;7.30;4.30;;;12.40;99.90;;;;;;5096663;27;20230;-76